createdAt,value
2022-10-02T00:00:54.915Z,100738.59
2022-10-02T00:03:25.173Z,100744.50
2022-10-02T00:05:56.533Z,100746.44
2022-10-02T00:08:28.299Z,100759.13
2022-10-02T00:11:00.746Z,100752.03
2022-10-02T00:13:33.153Z,100750.91
2022-10-02T00:16:01.913Z,100751.31
2022-10-02T00:18:31.563Z,100754.84
2022-10-02T00:21:04.078Z,100748.28
2022-10-02T00:23:34.647Z,100749.00
2022-10-02T00:26:06.821Z,100750.44
2022-10-02T00:28:41.814Z,100747.03
2022-10-02T00:31:29.050Z,100751.59
2022-10-02T00:34:14.365Z,100748.19
2022-10-02T00:36:49.343Z,100742.34
2022-10-02T00:39:27.156Z,100741.59
2022-10-02T00:42:54.658Z,100754.47
2022-10-02T00:46:09.691Z,100751.44
2022-10-02T00:49:10.163Z,100754.16
2022-10-02T00:51:55.740Z,100752.44
2022-10-02T00:54:58.062Z,100752.84
2022-10-02T00:57:34.660Z,100757.53
2022-10-02T01:00:07.380Z,100753.28
2022-10-02T01:03:00.422Z,100757.97
2022-10-02T01:05:30.216Z,100762.69
2022-10-02T01:07:58.750Z,100763.56
2022-10-02T01:10:27.972Z,100765.06
2022-10-02T01:12:57.261Z,100772.06
2022-10-02T01:15:31.025Z,100760.78
2022-10-02T01:17:59.693Z,100774.94
2022-10-02T01:20:33.489Z,100771.63
2022-10-02T01:23:07.198Z,100775.34
2022-10-02T01:25:36.494Z,100765.47
2022-10-02T01:28:05.744Z,100778.56
2022-10-02T01:30:36.232Z,100780.16
2022-10-02T01:33:05.717Z,100784.59
2022-10-02T01:35:35.637Z,100786.44
2022-10-02T01:38:07.510Z,100798.25
2022-10-02T01:40:38.271Z,100795.97
2022-10-02T01:43:08.187Z,100799.53
2022-10-02T01:46:12.656Z,100814.66
2022-10-02T01:48:46.643Z,100807.50
2022-10-02T01:51:23.706Z,100812.72
2022-10-02T01:53:55.974Z,100815.97
2022-10-02T01:56:34.088Z,100813.97
2022-10-02T01:59:06.291Z,100818.09
2022-10-02T02:01:42.073Z,100811.94
2022-10-02T02:04:20.634Z,100799.28
2022-10-02T02:06:55.728Z,100810.78
2022-10-02T02:09:29.333Z,100818.03
2022-10-02T02:12:02.493Z,100825.03
2022-10-02T02:14:31.963Z,100825.31
2022-10-02T02:17:04.390Z,100824.03
2022-10-02T02:19:35.547Z,100823.88
2022-10-02T02:22:07.941Z,100819.88
2022-10-02T02:24:39.954Z,100816.56
2022-10-02T02:27:12.919Z,100823.53
2022-10-02T02:29:42.466Z,100826.84
2022-10-02T02:32:12.008Z,100824.25
2022-10-02T02:34:42.182Z,100822.84
2022-10-02T02:37:13.923Z,100824.13
2022-10-02T02:39:47.810Z,100823.66
2022-10-02T02:42:18.242Z,100816.84
2022-10-02T02:44:50.329Z,100817.97
2022-10-02T02:47:21.496Z,100822.00
2022-10-02T02:49:52.983Z,100833.16
2022-10-02T02:52:23.086Z,100837.56
2022-10-02T02:54:54.354Z,100839.03
2022-10-02T02:57:28.594Z,100832.22
2022-10-02T02:59:57.722Z,100832.53
2022-10-02T03:02:25.731Z,100829.44
2022-10-02T03:04:53.741Z,100821.59
2022-10-02T03:07:21.882Z,100818.28
2022-10-02T03:09:55.562Z,100822.72
2022-10-02T03:12:34.269Z,100820.13
2022-10-02T03:15:16.296Z,100834.94
2022-10-02T03:18:15.730Z,100842.06
2022-10-02T03:20:48.679Z,100839.94
2022-10-02T03:23:21.146Z,100841.00
2022-10-02T03:25:53.774Z,100848.00
2022-10-02T03:28:53.921Z,100831.22
2022-10-02T03:31:16.554Z,100837.91
2022-10-02T03:33:45.179Z,100837.25
2022-10-02T03:36:14.285Z,100828.91
2022-10-02T03:38:43.576Z,100819.63
2022-10-02T03:41:11.513Z,100819.22
2022-10-02T03:43:40.922Z,100818.44
2022-10-02T03:46:08.880Z,100822.75
2022-10-02T03:48:36.919Z,100811.16
2022-10-02T03:51:04.953Z,100815.34
2022-10-02T03:53:35.082Z,100823.31
2022-10-02T03:56:08.204Z,100821.00
2022-10-02T03:58:38.834Z,100828.28
2022-10-02T04:01:12.777Z,100830.97
2022-10-02T04:03:46.554Z,100827.41
2022-10-02T04:06:16.012Z,100832.72
2022-10-02T04:08:48.606Z,100827.41
2022-10-02T04:11:21.143Z,100830.66
2022-10-02T04:13:50.637Z,100829.81
2022-10-02T04:16:23.751Z,100836.66
2022-10-02T04:18:55.670Z,100831.50
2022-10-02T04:21:35.040Z,100843.84
2022-10-02T04:24:12.868Z,100829.91
2022-10-02T04:26:43.669Z,100833.22
2022-10-02T04:29:17.182Z,100845.69
2022-10-02T04:31:50.606Z,100854.84
2022-10-02T04:34:18.718Z,100853.31
2022-10-02T04:36:59.686Z,100851.47
2022-10-02T04:39:40.099Z,100853.31
2022-10-02T04:42:17.749Z,100844.78
2022-10-02T04:45:02.547Z,100845.38
2022-10-02T04:47:59.234Z,100852.19
2022-10-02T04:50:38.061Z,100852.03
2022-10-02T04:53:17.958Z,100858.22
2022-10-02T04:56:01.673Z,100848.41
2022-10-02T04:58:39.438Z,100856.88
2022-10-02T05:01:13.684Z,100855.75
2022-10-02T05:03:53.697Z,100851.53
2022-10-02T05:06:36.150Z,100862.69
2022-10-02T05:09:13.675Z,100850.59
2022-10-02T05:11:56.296Z,100857.13
2022-10-02T05:14:46.328Z,100860.16
2022-10-02T05:17:26.805Z,100851.25
2022-10-02T05:20:14.754Z,100862.25
2022-10-02T05:22:50.441Z,100862.63
2022-10-02T05:25:33.826Z,100853.09
2022-10-02T05:28:26.114Z,100855.81
2022-10-02T05:31:03.972Z,100860.81
2022-10-02T05:33:48.091Z,100861.16
2022-10-02T05:36:27.084Z,100865.41
2022-10-02T05:39:02.485Z,100894.41
2022-10-02T05:41:39.635Z,100911.72
2022-10-02T05:44:10.433Z,100924.88
2022-10-02T05:46:41.809Z,100926.06
2022-10-02T05:49:16.271Z,100941.59
2022-10-02T05:51:53.633Z,100934.38
2022-10-02T05:54:28.948Z,100930.75
2022-10-02T05:57:00.748Z,100928.66
2022-10-02T05:59:35.462Z,100933.47
2022-10-02T06:02:09.589Z,100926.19
2022-10-02T06:04:41.022Z,100917.28
2022-10-02T06:07:13.223Z,100911.88
2022-10-02T06:09:46.068Z,100891.09
2022-10-02T06:12:17.389Z,100871.13
2022-10-02T06:14:50.780Z,100890.50
2022-10-02T06:17:22.249Z,100875.19
2022-10-02T06:19:53.465Z,100866.56
2022-10-02T06:22:25.994Z,100873.94
2022-10-02T06:24:56.641Z,100887.94
2022-10-02T06:27:29.561Z,100882.53
2022-10-02T06:30:00.522Z,100890.34
2022-10-02T06:32:33.669Z,100895.91
2022-10-02T06:35:02.089Z,100908.03
2022-10-02T06:37:37.812Z,100899.34
2022-10-02T06:40:25.613Z,100914.19
2022-10-02T06:42:58.681Z,100914.69
2022-10-02T06:45:32.819Z,100923.44
2022-10-02T06:48:06.663Z,100923.16
2022-10-02T06:50:52.733Z,100919.91
2022-10-02T06:53:36.152Z,100925.13
2022-10-02T06:56:11.970Z,100923.59
2022-10-02T06:58:49.153Z,100925.03
2022-10-02T07:01:26.702Z,100928.03
2022-10-02T07:04:08.648Z,100935.84
2022-10-02T07:06:42.701Z,100944.69
2022-10-02T07:09:44.739Z,100944.16
2022-10-02T07:12:24.622Z,100957.59
2022-10-02T07:15:06.166Z,100955.78
2022-10-02T07:17:44.018Z,100970.53
2022-10-02T07:20:36.883Z,100963.28
2022-10-02T07:23:14.805Z,100973.91
2022-10-02T07:25:58.239Z,100978.03
2022-10-02T07:28:29.631Z,100990.06
2022-10-02T07:31:01.329Z,101014.69
2022-10-02T07:33:45.586Z,100996.03
2022-10-02T07:36:15.058Z,100986.97
2022-10-02T07:38:54.575Z,100994.91
2022-10-02T07:41:53.402Z,101002.91
2022-10-02T07:44:34.523Z,101005.84
2022-10-02T07:47:10.020Z,100998.16
2022-10-02T07:49:48.718Z,100994.31
2022-10-02T07:52:20.705Z,100987.66
2022-10-02T07:55:08.982Z,100995.72
2022-10-02T07:57:42.355Z,100994.41
2022-10-02T08:00:14.178Z,100998.44
2022-10-02T08:02:48.460Z,100992.28
2022-10-02T08:05:20.086Z,101002.28
2022-10-02T08:07:50.973Z,101004.03
2022-10-02T08:10:23.094Z,101001.81
2022-10-02T08:12:57.590Z,101004.53
2022-10-02T08:15:27.630Z,101005.53
2022-10-02T08:18:10.759Z,101012.25
2022-10-02T08:20:47.787Z,101016.00
2022-10-02T08:23:22.243Z,101020.56
2022-10-02T08:25:55.991Z,101018.31
2022-10-02T08:28:30.641Z,101016.88
2022-10-02T08:30:58.934Z,101029.75
2022-10-02T08:33:26.905Z,101021.31
2022-10-02T08:36:23.265Z,101017.03
2022-10-02T08:38:55.843Z,101018.88
2022-10-02T08:41:43.945Z,101018.63
2022-10-02T08:44:44.630Z,101022.06
2022-10-02T08:47:42.163Z,101028.94
2022-10-02T08:50:45.348Z,101034.41
2022-10-02T08:53:54.408Z,101039.72
2022-10-02T08:56:36.529Z,101053.19
2022-10-02T08:59:41.398Z,101053.72
2022-10-02T09:02:33.817Z,101049.47
2022-10-02T09:05:43.137Z,101053.78
2022-10-02T09:08:44.997Z,101050.66
2022-10-02T09:11:58.121Z,101065.81
2022-10-02T09:14:43.690Z,101066.00
2022-10-02T09:17:22.048Z,101070.41
2022-10-02T09:20:00.604Z,101075.56
2022-10-02T09:22:52.272Z,101074.69
2022-10-02T09:25:28.312Z,101077.34
2022-10-02T09:28:39.334Z,101080.50
2022-10-02T09:31:40.418Z,101084.09
2022-10-02T09:34:42.643Z,101084.09
2022-10-02T09:37:38.156Z,101084.19
2022-10-02T09:40:33.441Z,101081.94
2022-10-02T09:43:28.806Z,101081.97
2022-10-02T09:46:27.625Z,101073.97
2022-10-02T09:49:29.282Z,101075.56
2022-10-02T09:52:26.930Z,101065.25
2022-10-02T09:55:30.367Z,101066.25
2022-10-02T09:58:44.512Z,101088.53
2022-10-02T10:01:29.190Z,101089.13
2022-10-02T10:04:42.275Z,101091.41
2022-10-02T10:07:46.746Z,101085.84
2022-10-02T10:10:47.135Z,101089.97
2022-10-02T10:13:38.045Z,101090.28
2022-10-02T10:16:47.100Z,101094.19
2022-10-02T10:19:45.355Z,101099.56
2022-10-02T10:22:39.078Z,101104.78
2022-10-02T10:25:54.020Z,101104.59
2022-10-02T10:28:38.029Z,101101.91
2022-10-02T10:31:38.671Z,101116.31
2022-10-02T10:34:47.319Z,101123.75
2022-10-02T10:37:54.504Z,101123.81
2022-10-02T10:40:32.489Z,101123.53
2022-10-02T10:43:42.106Z,101128.47
2022-10-02T10:46:33.562Z,101118.84
2022-10-02T10:49:38.632Z,101115.09
2022-10-02T10:52:16.302Z,101115.34
2022-10-02T10:54:57.441Z,101118.28
2022-10-02T10:57:52.015Z,101112.66
2022-10-02T11:00:23.544Z,101128.97
2022-10-02T11:03:24.721Z,101137.88
2022-10-02T11:06:22.166Z,101143.88
2022-10-02T11:09:26.960Z,101139.22
2022-10-02T11:12:09.677Z,101136.69
2022-10-02T11:14:48.703Z,101132.88
2022-10-02T11:17:34.832Z,101145.94
2022-10-02T11:20:19.425Z,101143.81
2022-10-02T11:23:03.085Z,101142.63
2022-10-02T11:25:53.540Z,101149.34
2022-10-02T11:28:34.035Z,101152.63
2022-10-02T11:31:16.669Z,101157.91
2022-10-02T11:33:58.815Z,101152.78
2022-10-02T11:36:42.774Z,101156.19
2022-10-02T11:39:17.453Z,101158.94
2022-10-02T11:42:11.893Z,101168.72
2022-10-02T11:45:04.306Z,101160.28
2022-10-02T11:47:55.111Z,101175.28
2022-10-02T11:50:41.361Z,101167.59
2022-10-02T11:53:26.773Z,101173.69
2022-10-02T11:56:06.506Z,101172.44
2022-10-02T11:58:45.218Z,101172.88
2022-10-02T12:01:21.165Z,101180.06
2022-10-02T12:04:18.701Z,101176.31
2022-10-02T12:07:05.725Z,101179.09
2022-10-02T12:09:43.502Z,101188.16
2022-10-02T12:12:27.996Z,101180.13
2022-10-02T12:15:00.905Z,101190.13
2022-10-02T12:17:53.206Z,101199.31
2022-10-02T12:20:45.085Z,101200.22
2022-10-02T12:23:41.318Z,101189.19
2022-10-02T12:26:31.705Z,101201.69
2022-10-02T12:29:07.159Z,101196.19
2022-10-02T12:31:40.874Z,101196.13
2022-10-02T12:34:21.089Z,101189.97
2022-10-02T12:36:56.580Z,101197.44
2022-10-02T12:39:38.701Z,101206.66
2022-10-02T12:42:14.945Z,101220.28
2022-10-02T12:45:09.251Z,101213.63
2022-10-02T12:48:01.781Z,101214.22
2022-10-02T12:50:55.475Z,101210.94
2022-10-02T12:54:01.893Z,101214.66
2022-10-02T12:57:06.070Z,101212.66
2022-10-02T12:59:41.788Z,101215.88
2022-10-02T13:03:01.236Z,101210.41
2022-10-02T13:05:50.761Z,101214.59
2022-10-02T13:08:26.718Z,101215.44
2022-10-02T13:11:04.062Z,101219.25
2022-10-02T13:13:46.858Z,101213.25
2022-10-02T13:16:22.929Z,101216.13
2022-10-02T13:19:02.490Z,101216.81
2022-10-02T13:21:39.094Z,101222.44
2022-10-02T13:24:21.882Z,101233.03
2022-10-02T13:26:58.065Z,101238.09
2022-10-02T13:29:45.829Z,101225.16
2022-10-02T13:32:46.752Z,101236.50
2022-10-02T13:35:30.403Z,101236.03
2022-10-02T13:38:12.451Z,101228.72
2022-10-02T13:40:47.900Z,101229.81
2022-10-02T13:43:35.665Z,101245.59
2022-10-02T13:46:13.361Z,101243.69
2022-10-02T13:48:55.305Z,101251.75
2022-10-02T13:51:28.873Z,101257.59
2022-10-02T13:54:23.826Z,101268.72
2022-10-02T13:56:53.174Z,101265.31
2022-10-02T13:59:33.169Z,101255.75
2022-10-02T14:02:22.117Z,101267.56
2022-10-02T14:04:57.098Z,101263.91
2022-10-02T14:07:38.685Z,101265.13
2022-10-02T14:10:13.790Z,101269.75
2022-10-02T14:12:52.439Z,101273.50
2022-10-02T14:15:32.702Z,101280.78
2022-10-02T14:18:35.396Z,101279.78
2022-10-02T14:21:10.294Z,101272.13
2022-10-02T14:23:48.522Z,101277.63
2022-10-02T14:26:23.877Z,101276.59
2022-10-02T14:29:08.754Z,101278.31
2022-10-02T14:32:10.558Z,101280.72
2022-10-02T14:34:56.777Z,101276.53
2022-10-02T14:37:35.509Z,101278.50
2022-10-02T14:40:12.965Z,101281.59
2022-10-02T14:42:55.225Z,101283.59
2022-10-02T14:46:04.238Z,101286.53
2022-10-02T14:48:50.593Z,101289.97
2022-10-02T14:51:30.350Z,101290.47
2022-10-02T14:54:24.058Z,101297.50
2022-10-02T14:56:59.648Z,101295.09
2022-10-02T14:59:58.919Z,101289.59
2022-10-02T15:02:48.926Z,101298.56
2022-10-02T15:05:42.092Z,101304.41
2022-10-02T15:08:15.854Z,101305.75
2022-10-02T15:10:46.384Z,101319.31
2022-10-02T15:13:24.810Z,101320.78
2022-10-02T15:16:14.622Z,101324.78
2022-10-02T15:18:44.916Z,101329.56
2022-10-02T15:21:26.209Z,101329.22
2022-10-02T15:23:58.445Z,101336.50
2022-10-02T15:26:50.906Z,101337.19
2022-10-02T15:29:29.565Z,101339.72
2022-10-02T15:32:24.721Z,101344.56
2022-10-02T15:34:59.808Z,101353.13
2022-10-02T15:37:29.669Z,101346.97
2022-10-02T15:40:20.426Z,101353.47
2022-10-02T15:42:55.103Z,101355.81
2022-10-02T15:45:39.551Z,101364.31
2022-10-02T15:48:27.848Z,101369.53
2022-10-02T15:50:59.330Z,101375.53
2022-10-02T15:53:43.099Z,101377.22
2022-10-02T15:56:31.732Z,101387.44
2022-10-02T15:59:19.294Z,101382.84
2022-10-02T16:02:00.564Z,101379.56
2022-10-02T16:04:35.166Z,101378.34
2022-10-02T16:07:44.942Z,101383.81
2022-10-02T16:10:22.559Z,101388.28
2022-10-02T16:13:28.734Z,101394.72
2022-10-02T16:16:03.095Z,101399.75
2022-10-02T16:18:43.245Z,101399.19
2022-10-02T16:21:29.954Z,101408.94
2022-10-02T16:24:25.899Z,101413.19
2022-10-02T16:27:14.605Z,101401.16
2022-10-02T16:29:53.161Z,101413.22
2022-10-02T16:32:28.040Z,101408.72
2022-10-02T16:35:17.721Z,101418.72
2022-10-02T16:37:46.636Z,101417.56
2022-10-02T16:40:26.929Z,101423.91
2022-10-02T16:43:06.806Z,101423.16
2022-10-02T16:45:48.270Z,101425.75
2022-10-02T16:48:20.517Z,101433.38
2022-10-02T16:51:13.882Z,101433.38
2022-10-02T16:53:46.014Z,101435.59
2022-10-02T16:56:17.900Z,101448.34
2022-10-02T16:58:49.429Z,101455.06
2022-10-02T17:01:26.295Z,101455.03
2022-10-02T17:04:18.378Z,101454.06
2022-10-02T17:06:50.454Z,101460.19
2022-10-02T17:09:22.495Z,101462.09
2022-10-02T17:11:53.805Z,101472.50
2022-10-02T17:14:26.373Z,101470.63
2022-10-02T17:16:56.613Z,101479.84
2022-10-02T17:19:28.513Z,101478.84
2022-10-02T17:21:59.954Z,101480.19
2022-10-02T17:24:43.725Z,101487.44
2022-10-02T17:27:16.963Z,101494.09
2022-10-02T17:29:52.935Z,101495.81
2022-10-02T17:32:39.639Z,101505.44
2022-10-02T17:35:16.374Z,101508.84
2022-10-02T17:38:19.885Z,101515.19
2022-10-02T17:40:54.546Z,101519.56
2022-10-02T17:43:25.446Z,101514.03
2022-10-02T17:46:03.226Z,101525.69
2022-10-02T17:48:39.808Z,101529.00
2022-10-02T17:51:47.605Z,101537.03
2022-10-02T17:54:37.882Z,101538.28
2022-10-02T17:57:27.589Z,101541.81
2022-10-02T18:00:19.615Z,101545.06
2022-10-02T18:03:18.194Z,101543.63
2022-10-02T18:05:52.430Z,101553.13
2022-10-02T18:08:37.838Z,101560.56
2022-10-02T18:11:09.205Z,101561.91
2022-10-02T18:13:57.204Z,101567.53
2022-10-02T18:16:36.147Z,101566.09
2022-10-02T18:19:23.964Z,101573.44
2022-10-02T18:22:04.486Z,101577.66
2022-10-02T18:25:00.151Z,101576.63
2022-10-02T18:27:43.214Z,101586.97
2022-10-02T18:30:16.641Z,101583.13
2022-10-02T18:33:04.989Z,101590.31
2022-10-02T18:35:41.762Z,101586.72
2022-10-02T18:38:15.077Z,101585.84
2022-10-02T18:40:55.099Z,101596.69
2022-10-02T18:43:38.935Z,101594.97
2022-10-02T18:46:16.714Z,101604.38
2022-10-02T18:49:08.663Z,101604.88
2022-10-02T18:52:06.220Z,101613.91
2022-10-02T18:54:43.688Z,101610.78
2022-10-02T18:57:25.004Z,101607.59
2022-10-02T18:59:59.792Z,101613.34
2022-10-02T19:02:41.678Z,101612.34
2022-10-02T19:05:25.817Z,101612.09
2022-10-02T19:07:57.329Z,101615.44
2022-10-02T19:10:29.274Z,101617.38
2022-10-02T19:13:18.176Z,101622.97
2022-10-02T19:15:48.512Z,101630.78
2022-10-02T19:18:18.110Z,101625.81
2022-10-02T19:20:54.301Z,101631.03
2022-10-02T19:23:26.875Z,101628.16
2022-10-02T19:25:56.144Z,101632.97
2022-10-02T19:28:28.827Z,101635.97
2022-10-02T19:30:59.634Z,101637.03
2022-10-02T19:33:46.050Z,101638.19
2022-10-02T19:36:19.701Z,101642.25
2022-10-02T19:38:53.637Z,101642.38
2022-10-02T19:41:22.789Z,101639.50
2022-10-02T19:43:56.812Z,101637.91
2022-10-02T19:46:37.278Z,101635.19
2022-10-02T19:49:06.446Z,101645.09
2022-10-02T19:51:43.834Z,101655.81
2022-10-02T19:54:14.838Z,101667.44
2022-10-02T19:56:45.017Z,101663.97
2022-10-02T19:59:18.456Z,101666.59
2022-10-02T20:01:50.998Z,101681.16
2022-10-02T20:04:21.145Z,101680.91
2022-10-02T20:06:53.065Z,101679.16
2022-10-02T20:09:24.563Z,101674.25
2022-10-02T20:11:54.786Z,101676.59
2022-10-02T20:14:27.441Z,101683.53
2022-10-02T20:17:09.458Z,101682.50
2022-10-02T20:19:41.313Z,101686.47
2022-10-02T20:22:21.074Z,101690.31
2022-10-02T20:24:53.655Z,101696.25
2022-10-02T20:27:26.122Z,101702.41
2022-10-02T20:29:58.396Z,101694.50
2022-10-02T20:32:29.917Z,101699.81
2022-10-02T20:35:02.190Z,101696.25
2022-10-02T20:37:31.359Z,101703.28
2022-10-02T20:40:04.642Z,101700.06
2022-10-02T20:42:36.626Z,101708.31
2022-10-02T20:45:09.025Z,101699.09
2022-10-02T20:48:24.464Z,101704.38
2022-10-02T20:50:57.510Z,101708.44
2022-10-02T20:54:12.527Z,101707.59
2022-10-02T20:56:59.711Z,101709.94
2022-10-02T21:00:00.850Z,101722.53
2022-10-02T21:02:47.537Z,101721.13
2022-10-02T21:06:00.051Z,101711.75
2022-10-02T21:08:50.808Z,101721.28
2022-10-02T21:11:26.838Z,101714.34
2022-10-02T21:14:21.912Z,101711.13
2022-10-02T21:17:23.301Z,101722.72
2022-10-02T21:20:16.705Z,101721.09
2022-10-02T21:23:21.218Z,101726.25
2022-10-02T21:26:30.653Z,101732.09
2022-10-02T21:29:25.495Z,101735.91
2022-10-02T21:32:23.017Z,101732.34
2022-10-02T21:35:04.053Z,101734.16
2022-10-02T21:37:46.826Z,101735.41
2022-10-02T21:40:45.681Z,101747.25
2022-10-02T21:44:03.964Z,101745.41
2022-10-02T21:46:52.577Z,101754.00
2022-10-02T21:50:23.533Z,101746.78
2022-10-02T21:53:36.982Z,101758.56
2022-10-02T21:56:43.129Z,101754.13
2022-10-02T21:59:37.637Z,101761.53
2022-10-02T22:02:31.798Z,101764.50
2022-10-02T22:05:36.508Z,101761.25
2022-10-02T22:08:13.352Z,101767.47
2022-10-02T22:10:49.286Z,101765.06
2022-10-02T22:13:23.478Z,101780.31
2022-10-02T22:16:04.223Z,101793.06
2022-10-02T22:18:39.370Z,101787.50
2022-10-02T22:21:24.966Z,101789.88
2022-10-02T22:24:04.159Z,101797.47
2022-10-02T22:26:47.540Z,101803.69
2022-10-02T22:29:19.746Z,101810.16
2022-10-02T22:32:17.809Z,101810.72
2022-10-02T22:34:52.817Z,101812.69
2022-10-02T22:37:34.971Z,101813.66
2022-10-02T22:40:05.761Z,101818.53
2022-10-02T22:42:40.469Z,101829.53
2022-10-02T22:45:16.551Z,101814.34
2022-10-02T22:47:51.958Z,101816.19
2022-10-02T22:50:23.489Z,101816.63
2022-10-02T22:52:54.489Z,101811.03
2022-10-02T22:55:26.155Z,101821.13
2022-10-02T22:58:02.422Z,101822.53
2022-10-02T23:00:35.287Z,101819.03
2022-10-02T23:03:07.286Z,101818.28
2022-10-02T23:05:41.212Z,101828.66
2022-10-02T23:08:19.291Z,101827.56
2022-10-02T23:10:49.142Z,101829.94
2022-10-02T23:13:23.738Z,101827.75
2022-10-02T23:15:57.677Z,101834.28
2022-10-02T23:18:35.337Z,101833.53
2022-10-02T23:21:12.034Z,101838.94
2022-10-02T23:23:50.967Z,101824.72
2022-10-02T23:26:20.623Z,101831.56
2022-10-02T23:28:54.271Z,101830.59
2022-10-02T23:31:30.410Z,101843.41
2022-10-02T23:34:03.683Z,101841.00
2022-10-02T23:36:36.425Z,101836.59
2022-10-02T23:39:06.308Z,101841.88
2022-10-02T23:41:39.515Z,101849.50
2022-10-02T23:44:17.337Z,101847.53
2022-10-02T23:46:58.001Z,101843.53
2022-10-02T23:49:29.666Z,101846.03
2022-10-02T23:52:05.416Z,101853.41
2022-10-02T23:54:46.489Z,101861.66
2022-10-02T23:57:32.681Z,101858.84
